sensor_id;sensor_type;location;lat;lon;timestamp;P1;durP1;ratioP1;P2;durP2;ratioP2
5951;SDS011;3001;42.622;23.194;2023-09-18T00:02:18;13.83;;;12.57;;
5951;SDS011;3001;42.622;23.194;2023-09-18T00:04:45;13.07;;;11.67;;
5951;SDS011;3001;42.622;23.194;2023-09-18T00:07:13;12.27;;;11.07;;
5951;SDS011;3001;42.622;23.194;2023-09-18T00:09:40;12.07;;;10.77;;
5951;SDS011;3001;42.622;23.194;2023-09-18T00:12:06;13.23;;;11.83;;
5951;SDS011;3001;42.622;23.194;2023-09-18T00:14:34;15.80;;;11.80;;
5951;SDS011;3001;42.622;23.194;2023-09-18T00:17:01;12.80;;;11.50;;
5951;SDS011;3001;42.622;23.194;2023-09-18T00:19:28;11.63;;;10.53;;
5951;SDS011;3001;42.622;23.194;2023-09-18T00:21:56;12.17;;;10.97;;
5951;SDS011;3001;42.622;23.194;2023-09-18T00:24:27;13.33;;;10.47;;
5951;SDS011;3001;42.622;23.194;2023-09-18T00:26:53;13.37;;;10.53;;
5951;SDS011;3001;42.622;23.194;2023-09-18T00:29:20;15.13;;;11.23;;
5951;SDS011;3001;42.622;23.194;2023-09-18T00:31:47;15.20;;;11.17;;
5951;SDS011;3001;42.622;23.194;2023-09-18T00:34:13;15.53;;;11.53;;
5951;SDS011;3001;42.622;23.194;2023-09-18T00:36:40;12.43;;;10.87;;
5951;SDS011;3001;42.622;23.194;2023-09-18T00:39:07;13.30;;;11.40;;
5951;SDS011;3001;42.622;23.194;2023-09-18T00:41:35;12.00;;;10.80;;
5951;SDS011;3001;42.622;23.194;2023-09-18T00:44:02;12.53;;;11.33;;
5951;SDS011;3001;42.622;23.194;2023-09-18T00:46:30;12.57;;;11.33;;
5951;SDS011;3001;42.622;23.194;2023-09-18T00:48:57;12.70;;;11.03;;
5951;SDS011;3001;42.622;23.194;2023-09-18T00:51:24;12.53;;;10.53;;
5951;SDS011;3001;42.622;23.194;2023-09-18T00:53:52;13.27;;;10.73;;
5951;SDS011;3001;42.622;23.194;2023-09-18T00:56:19;14.30;;;10.93;;
5951;SDS011;3001;42.622;23.194;2023-09-18T00:58:47;11.83;;;10.20;;
5951;SDS011;3001;42.622;23.194;2023-09-18T01:01:16;11.43;;;10.33;;
5951;SDS011;3001;42.622;23.194;2023-09-18T01:03:47;11.20;;;10.07;;
5951;SDS011;3001;42.622;23.194;2023-09-18T01:06:14;11.90;;;10.67;;
5951;SDS011;3001;42.622;23.194;2023-09-18T01:08:42;12.63;;;11.00;;
5951;SDS011;3001;42.622;23.194;2023-09-18T01:11:10;11.87;;;10.63;;
5951;SDS011;3001;42.622;23.194;2023-09-18T01:13:45;10.30;;;9.50;;
5951;SDS011;3001;42.622;23.194;2023-09-18T01:16:24;10.97;;;9.97;;
5951;SDS011;3001;42.622;23.194;2023-09-18T01:18:53;10.57;;;9.67;;
5951;SDS011;3001;42.622;23.194;2023-09-18T01:21:20;11.23;;;10.03;;
5951;SDS011;3001;42.622;23.194;2023-09-18T01:23:48;11.63;;;10.47;;
5951;SDS011;3001;42.622;23.194;2023-09-18T01:26:16;12.00;;;10.80;;
5951;SDS011;3001;42.622;23.194;2023-09-18T01:28:43;11.67;;;10.50;;
5951;SDS011;3001;42.622;23.194;2023-09-18T01:31:10;13.47;;;10.50;;
5951;SDS011;3001;42.622;23.194;2023-09-18T01:33:37;10.50;;;9.70;;
5951;SDS011;3001;42.622;23.194;2023-09-18T01:36:05;11.27;;;10.27;;
5951;SDS011;3001;42.622;23.194;2023-09-18T01:38:33;11.10;;;10.03;;
5951;SDS011;3001;42.622;23.194;2023-09-18T01:41:02;14.27;;;10.03;;
5951;SDS011;3001;42.622;23.194;2023-09-18T01:43:28;11.43;;;10.27;;
5951;SDS011;3001;42.622;23.194;2023-09-18T01:45:55;11.57;;;10.37;;
5951;SDS011;3001;42.622;23.194;2023-09-18T01:48:22;11.50;;;10.30;;
5951;SDS011;3001;42.622;23.194;2023-09-18T01:50:49;11.80;;;10.60;;
5951;SDS011;3001;42.622;23.194;2023-09-18T01:53:15;14.23;;;10.60;;
5951;SDS011;3001;42.622;23.194;2023-09-18T01:55:42;14.03;;;10.87;;
5951;SDS011;3001;42.622;23.194;2023-09-18T01:58:10;12.90;;;10.70;;
5951;SDS011;3001;42.622;23.194;2023-09-18T02:00:39;13.43;;;11.00;;
5951;SDS011;3001;42.622;23.194;2023-09-18T02:03:06;16.87;;;10.53;;
5951;SDS011;3001;42.622;23.194;2023-09-18T02:05:32;13.20;;;10.77;;
5951;SDS011;3001;42.622;23.194;2023-09-18T02:08:00;12.37;;;11.17;;
5951;SDS011;3001;42.622;23.194;2023-09-18T02:10:27;12.50;;;11.20;;
5951;SDS011;3001;42.622;23.194;2023-09-18T02:12:53;14.20;;;11.80;;
5951;SDS011;3001;42.622;23.194;2023-09-18T02:15:21;13.37;;;10.80;;
5951;SDS011;3001;42.622;23.194;2023-09-18T02:17:48;12.30;;;10.43;;
5951;SDS011;3001;42.622;23.194;2023-09-18T02:20:15;12.40;;;11.07;;
5951;SDS011;3001;42.622;23.194;2023-09-18T02:22:43;12.57;;;11.33;;
5951;SDS011;3001;42.622;23.194;2023-09-18T02:25:12;12.53;;;11.30;;
5951;SDS011;3001;42.622;23.194;2023-09-18T02:27:38;14.20;;;11.83;;
5951;SDS011;3001;42.622;23.194;2023-09-18T02:30:06;11.83;;;10.73;;
5951;SDS011;3001;42.622;23.194;2023-09-18T02:32:36;12.20;;;11.10;;
5951;SDS011;3001;42.622;23.194;2023-09-18T02:35:03;11.50;;;10.00;;
5951;SDS011;3001;42.622;23.194;2023-09-18T02:37:32;12.47;;;11.23;;
5951;SDS011;3001;42.622;23.194;2023-09-18T02:39:58;12.70;;;11.37;;
5951;SDS011;3001;42.622;23.194;2023-09-18T02:42:25;11.70;;;10.60;;
5951;SDS011;3001;42.622;23.194;2023-09-18T02:44:52;12.30;;;11.00;;
5951;SDS011;3001;42.622;23.194;2023-09-18T02:47:18;11.43;;;10.33;;
5951;SDS011;3001;42.622;23.194;2023-09-18T02:49:46;12.43;;;11.33;;
5951;SDS011;3001;42.622;23.194;2023-09-18T02:52:13;13.47;;;11.07;;
5951;SDS011;3001;42.622;23.194;2023-09-18T02:54:40;12.10;;;11.00;;
5951;SDS011;3001;42.622;23.194;2023-09-18T02:57:06;11.90;;;10.70;;
5951;SDS011;3001;42.622;23.194;2023-09-18T02:59:33;14.37;;;10.90;;
5951;SDS011;3001;42.622;23.194;2023-09-18T03:02:00;12.77;;;10.97;;
5951;SDS011;3001;42.622;23.194;2023-09-18T03:04:26;14.67;;;11.53;;
5951;SDS011;3001;42.622;23.194;2023-09-18T03:06:56;17.87;;;12.40;;
5951;SDS011;3001;42.622;23.194;2023-09-18T03:09:23;14.37;;;12.00;;
5951;SDS011;3001;42.622;23.194;2023-09-18T03:11:49;14.50;;;11.20;;
5951;SDS011;3001;42.622;23.194;2023-09-18T03:14:16;12.33;;;11.07;;
5951;SDS011;3001;42.622;23.194;2023-09-18T03:16:43;13.57;;;11.47;;
5951;SDS011;3001;42.622;23.194;2023-09-18T03:19:10;20.43;;;10.67;;
5951;SDS011;3001;42.622;23.194;2023-09-18T03:21:37;14.00;;;11.43;;
5951;SDS011;3001;42.622;23.194;2023-09-18T03:24:06;16.23;;;12.83;;
5951;SDS011;3001;42.622;23.194;2023-09-18T03:26:33;13.27;;;11.57;;
5951;SDS011;3001;42.622;23.194;2023-09-18T03:29:00;11.87;;;10.77;;
5951;SDS011;3001;42.622;23.194;2023-09-18T03:31:26;12.47;;;11.23;;
5951;SDS011;3001;42.622;23.194;2023-09-18T03:33:54;12.63;;;10.60;;
5951;SDS011;3001;42.622;23.194;2023-09-18T03:36:21;12.83;;;11.60;;
5951;SDS011;3001;42.622;23.194;2023-09-18T03:38:48;12.60;;;10.83;;
5951;SDS011;3001;42.622;23.194;2023-09-18T03:41:16;11.93;;;10.83;;
5951;SDS011;3001;42.622;23.194;2023-09-18T03:43:43;12.83;;;11.17;;
5951;SDS011;3001;42.622;23.194;2023-09-18T03:46:09;11.93;;;10.53;;
5951;SDS011;3001;42.622;23.194;2023-09-18T03:48:36;12.23;;;11.00;;
5951;SDS011;3001;42.622;23.194;2023-09-18T03:51:03;12.53;;;11.23;;
5951;SDS011;3001;42.622;23.194;2023-09-18T03:53:30;17.33;;;10.93;;
5951;SDS011;3001;42.622;23.194;2023-09-18T03:55:58;14.87;;;11.37;;
5951;SDS011;3001;42.622;23.194;2023-09-18T03:58:26;14.33;;;11.90;;
5951;SDS011;3001;42.622;23.194;2023-09-18T04:00:53;13.30;;;11.47;;
5951;SDS011;3001;42.622;23.194;2023-09-18T04:03:19;16.90;;;11.93;;
5951;SDS011;3001;42.622;23.194;2023-09-18T04:05:46;13.37;;;12.03;;
5951;SDS011;3001;42.622;23.194;2023-09-18T04:08:13;13.10;;;11.80;;
5951;SDS011;3001;42.622;23.194;2023-09-18T04:10:39;14.30;;;12.80;;
5951;SDS011;3001;42.622;23.194;2023-09-18T04:13:06;12.90;;;11.60;;
5951;SDS011;3001;42.622;23.194;2023-09-18T04:15:35;13.53;;;12.13;;
5951;SDS011;3001;42.622;23.194;2023-09-18T04:18:03;16.07;;;11.70;;
5951;SDS011;3001;42.622;23.194;2023-09-18T04:20:30;13.83;;;11.63;;
5951;SDS011;3001;42.622;23.194;2023-09-18T04:25:46;12.57;;;11.23;;
5951;SDS011;3001;42.622;23.194;2023-09-18T04:28:13;11.63;;;10.43;;
5951;SDS011;3001;42.622;23.194;2023-09-18T04:30:42;12.87;;;11.57;;
5951;SDS011;3001;42.622;23.194;2023-09-18T04:33:08;13.43;;;11.03;;
5951;SDS011;3001;42.622;23.194;2023-09-18T04:35:36;12.67;;;11.20;;
5951;SDS011;3001;42.622;23.194;2023-09-18T04:38:05;16.20;;;10.93;;
5951;SDS011;3001;42.622;23.194;2023-09-18T04:40:33;15.67;;;10.57;;
5951;SDS011;3001;42.622;23.194;2023-09-18T04:43:00;10.93;;;9.73;;
5951;SDS011;3001;42.622;23.194;2023-09-18T04:45:27;12.73;;;11.43;;
5951;SDS011;3001;42.622;23.194;2023-09-18T04:47:55;10.93;;;9.83;;
5951;SDS011;3001;42.622;23.194;2023-09-18T04:50:22;14.40;;;10.90;;
5951;SDS011;3001;42.622;23.194;2023-09-18T04:52:51;13.37;;;10.37;;
5951;SDS011;3001;42.622;23.194;2023-09-18T04:55:19;14.10;;;10.00;;
5951;SDS011;3001;42.622;23.194;2023-09-18T04:57:46;12.60;;;10.80;;
5951;SDS011;3001;42.622;23.194;2023-09-18T05:00:13;13.13;;;10.47;;
5951;SDS011;3001;42.622;23.194;2023-09-18T05:02:40;12.50;;;11.30;;
5951;SDS011;3001;42.622;23.194;2023-09-18T05:05:09;14.30;;;11.40;;
5951;SDS011;3001;42.622;23.194;2023-09-18T05:07:35;13.33;;;12.03;;
5951;SDS011;3001;42.622;23.194;2023-09-18T05:10:03;13.77;;;11.87;;
5951;SDS011;3001;42.622;23.194;2023-09-18T05:12:30;14.43;;;11.93;;
5951;SDS011;3001;42.622;23.194;2023-09-18T05:14:57;15.40;;;11.63;;
5951;SDS011;3001;42.622;23.194;2023-09-18T05:17:38;12.20;;;10.90;;
5951;SDS011;3001;42.622;23.194;2023-09-18T05:20:09;16.30;;;11.43;;
5951;SDS011;3001;42.622;23.194;2023-09-18T05:22:38;13.87;;;10.90;;
5951;SDS011;3001;42.622;23.194;2023-09-18T05:25:05;12.37;;;10.90;;
5951;SDS011;3001;42.622;23.194;2023-09-18T05:27:33;14.07;;;12.20;;
5951;SDS011;3001;42.622;23.194;2023-09-18T05:29:59;14.17;;;11.70;;
5951;SDS011;3001;42.622;23.194;2023-09-18T05:32:26;16.03;;;13.43;;
5951;SDS011;3001;42.622;23.194;2023-09-18T05:34:53;13.67;;;12.03;;
5951;SDS011;3001;42.622;23.194;2023-09-18T05:37:21;12.53;;;11.30;;
5951;SDS011;3001;42.622;23.194;2023-09-18T05:39:47;12.13;;;11.07;;
5951;SDS011;3001;42.622;23.194;2023-09-18T05:42:14;14.10;;;11.67;;
5951;SDS011;3001;42.622;23.194;2023-09-18T05:44:41;13.33;;;11.47;;
5951;SDS011;3001;42.622;23.194;2023-09-18T05:47:08;12.37;;;11.07;;
5951;SDS011;3001;42.622;23.194;2023-09-18T05:49:34;13.43;;;12.13;;
5951;SDS011;3001;42.622;23.194;2023-09-18T05:52:01;16.23;;;13.50;;
5951;SDS011;3001;42.622;23.194;2023-09-18T05:54:29;15.13;;;12.27;;
5951;SDS011;3001;42.622;23.194;2023-09-18T05:56:56;14.77;;;11.37;;
5951;SDS011;3001;42.622;23.194;2023-09-18T05:59:23;14.27;;;12.83;;
5951;SDS011;3001;42.622;23.194;2023-09-18T06:01:49;15.90;;;13.53;;
5951;SDS011;3001;42.622;23.194;2023-09-18T06:04:19;20.17;;;14.73;;
5951;SDS011;3001;42.622;23.194;2023-09-18T06:06:46;21.40;;;14.97;;
5951;SDS011;3001;42.622;23.194;2023-09-18T06:09:13;17.50;;;15.17;;
5951;SDS011;3001;42.622;23.194;2023-09-18T06:11:41;19.73;;;15.13;;
5951;SDS011;3001;42.622;23.194;2023-09-18T06:14:07;17.20;;;15.03;;
5951;SDS011;3001;42.622;23.194;2023-09-18T06:16:36;21.13;;;16.07;;
5951;SDS011;3001;42.622;23.194;2023-09-18T06:19:03;17.70;;;15.30;;
5951;SDS011;3001;42.622;23.194;2023-09-18T06:21:29;20.90;;;15.47;;
5951;SDS011;3001;42.622;23.194;2023-09-18T06:23:56;18.27;;;16.23;;
5951;SDS011;3001;42.622;23.194;2023-09-18T06:26:23;23.50;;;16.87;;
5951;SDS011;3001;42.622;23.194;2023-09-18T06:28:51;17.27;;;15.50;;
5951;SDS011;3001;42.622;23.194;2023-09-18T06:31:19;20.30;;;16.67;;
5951;SDS011;3001;42.622;23.194;2023-09-18T06:33:47;22.87;;;16.67;;
5951;SDS011;3001;42.622;23.194;2023-09-18T06:36:14;18.57;;;15.97;;
5951;SDS011;3001;42.622;23.194;2023-09-18T06:38:40;17.53;;;15.73;;
5951;SDS011;3001;42.622;23.194;2023-09-18T06:41:07;20.43;;;17.67;;
5951;SDS011;3001;42.622;23.194;2023-09-18T06:43:34;19.97;;;16.63;;
5951;SDS011;3001;42.622;23.194;2023-09-18T06:46:02;22.07;;;17.47;;
5951;SDS011;3001;42.622;23.194;2023-09-18T06:48:29;22.70;;;18.30;;
5951;SDS011;3001;42.622;23.194;2023-09-18T06:50:57;20.57;;;17.37;;
5951;SDS011;3001;42.622;23.194;2023-09-18T06:53:25;23.33;;;18.53;;
5951;SDS011;3001;42.622;23.194;2023-09-18T06:55:51;21.97;;;17.57;;
5951;SDS011;3001;42.622;23.194;2023-09-18T06:58:18;23.63;;;18.17;;
5951;SDS011;3001;42.622;23.194;2023-09-18T07:00:45;24.40;;;18.67;;
5951;SDS011;3001;42.622;23.194;2023-09-18T07:03:14;20.30;;;17.43;;
5951;SDS011;3001;42.622;23.194;2023-09-18T07:05:42;25.33;;;17.70;;
5951;SDS011;3001;42.622;23.194;2023-09-18T07:08:09;23.60;;;18.60;;
5951;SDS011;3001;42.622;23.194;2023-09-18T07:10:38;23.03;;;17.83;;
5951;SDS011;3001;42.622;23.194;2023-09-18T07:13:05;24.03;;;18.97;;
5951;SDS011;3001;42.622;23.194;2023-09-18T07:15:31;28.27;;;18.53;;
5951;SDS011;3001;42.622;23.194;2023-09-18T07:17:58;26.87;;;19.40;;
5951;SDS011;3001;42.622;23.194;2023-09-18T07:20:26;26.33;;;18.47;;
5951;SDS011;3001;42.622;23.194;2023-09-18T07:22:53;26.97;;;18.87;;
5951;SDS011;3001;42.622;23.194;2023-09-18T07:25:20;34.23;;;20.47;;
5951;SDS011;3001;42.622;23.194;2023-09-18T07:27:47;23.87;;;17.20;;
5951;SDS011;3001;42.622;23.194;2023-09-18T07:30:14;23.57;;;18.63;;
5951;SDS011;3001;42.622;23.194;2023-09-18T07:32:42;24.37;;;18.80;;
5951;SDS011;3001;42.622;23.194;2023-09-18T07:35:09;22.03;;;17.87;;
5951;SDS011;3001;42.622;23.194;2023-09-18T07:37:38;23.50;;;18.27;;
5951;SDS011;3001;42.622;23.194;2023-09-18T07:40:05;26.30;;;19.10;;
5951;SDS011;3001;42.622;23.194;2023-09-18T07:42:33;29.57;;;18.77;;
5951;SDS011;3001;42.622;23.194;2023-09-18T07:45:00;23.50;;;17.37;;
5951;SDS011;3001;42.622;23.194;2023-09-18T07:47:26;23.10;;;18.83;;
5951;SDS011;3001;42.622;23.194;2023-09-18T07:49:53;24.50;;;20.23;;
5951;SDS011;3001;42.622;23.194;2023-09-18T07:52:20;27.63;;;18.77;;
5951;SDS011;3001;42.622;23.194;2023-09-18T07:54:48;24.43;;;17.87;;
5951;SDS011;3001;42.622;23.194;2023-09-18T07:57:15;25.77;;;18.27;;
5951;SDS011;3001;42.622;23.194;2023-09-18T07:59:42;23.57;;;19.47;;
5951;SDS011;3001;42.622;23.194;2023-09-18T08:02:09;25.77;;;17.77;;
5951;SDS011;3001;42.622;23.194;2023-09-18T08:04:35;23.53;;;18.30;;
5951;SDS011;3001;42.622;23.194;2023-09-18T08:07:02;26.87;;;18.73;;
5951;SDS011;3001;42.622;23.194;2023-09-18T08:09:31;24.63;;;19.30;;
5951;SDS011;3001;42.622;23.194;2023-09-18T08:12:02;26.83;;;19.37;;
5951;SDS011;3001;42.622;23.194;2023-09-18T08:14:29;25.40;;;18.43;;
5951;SDS011;3001;42.622;23.194;2023-09-18T08:16:56;21.43;;;17.83;;
5951;SDS011;3001;42.622;23.194;2023-09-18T08:19:23;22.20;;;17.37;;
5951;SDS011;3001;42.622;23.194;2023-09-18T08:21:51;24.33;;;17.73;;
5951;SDS011;3001;42.622;23.194;2023-09-18T08:24:19;23.17;;;18.03;;
5951;SDS011;3001;42.622;23.194;2023-09-18T08:26:45;24.70;;;17.77;;
5951;SDS011;3001;42.622;23.194;2023-09-18T08:29:13;23.33;;;18.47;;
5951;SDS011;3001;42.622;23.194;2023-09-18T08:31:40;21.57;;;16.80;;
5951;SDS011;3001;42.622;23.194;2023-09-18T08:34:07;19.53;;;16.87;;
5951;SDS011;3001;42.622;23.194;2023-09-18T08:36:34;21.83;;;16.23;;
5951;SDS011;3001;42.622;23.194;2023-09-18T08:39:00;18.60;;;15.60;;
5951;SDS011;3001;42.622;23.194;2023-09-18T08:41:28;20.00;;;15.20;;
5951;SDS011;3001;42.622;23.194;2023-09-18T08:43:59;17.97;;;15.53;;
5951;SDS011;3001;42.622;23.194;2023-09-18T08:46:30;18.53;;;15.53;;
5951;SDS011;3001;42.622;23.194;2023-09-18T08:48:59;18.77;;;15.67;;
5951;SDS011;3001;42.622;23.194;2023-09-18T08:51:27;20.47;;;15.90;;
5951;SDS011;3001;42.622;23.194;2023-09-18T08:53:54;20.83;;;15.87;;
5951;SDS011;3001;42.622;23.194;2023-09-18T08:56:22;20.47;;;16.67;;
5951;SDS011;3001;42.622;23.194;2023-09-18T08:58:49;17.20;;;14.90;;
5951;SDS011;3001;42.622;23.194;2023-09-18T09:01:15;15.40;;;13.93;;
5951;SDS011;3001;42.622;23.194;2023-09-18T09:03:45;21.63;;;14.23;;
5951;SDS011;3001;42.622;23.194;2023-09-18T09:06:12;17.37;;;15.40;;
5951;SDS011;3001;42.622;23.194;2023-09-18T09:08:39;16.73;;;13.53;;
5951;SDS011;3001;42.622;23.194;2023-09-18T09:11:06;15.67;;;14.03;;
5951;SDS011;3001;42.622;23.194;2023-09-18T09:13:32;14.40;;;12.90;;
5951;SDS011;3001;42.622;23.194;2023-09-18T09:15:59;14.70;;;13.37;;
5951;SDS011;3001;42.622;23.194;2023-09-18T09:18:26;13.90;;;12.53;;
5951;SDS011;3001;42.622;23.194;2023-09-18T09:20:56;14.07;;;12.67;;
5951;SDS011;3001;42.622;23.194;2023-09-18T09:23:25;14.97;;;12.17;;
5951;SDS011;3001;42.622;23.194;2023-09-18T09:25:52;12.83;;;11.57;;
5951;SDS011;3001;42.622;23.194;2023-09-18T09:28:29;13.23;;;12.07;;
5951;SDS011;3001;42.622;23.194;2023-09-18T09:30:59;11.97;;;10.50;;
5951;SDS011;3001;42.622;23.194;2023-09-18T09:33:27;12.33;;;11.20;;
5951;SDS011;3001;42.622;23.194;2023-09-18T09:35:56;12.33;;;11.10;;
5951;SDS011;3001;42.622;23.194;2023-09-18T09:38:28;12.17;;;11.17;;
5951;SDS011;3001;42.622;23.194;2023-09-18T09:40:57;12.67;;;11.37;;
5951;SDS011;3001;42.622;23.194;2023-09-18T09:43:25;12.63;;;10.27;;
5951;SDS011;3001;42.622;23.194;2023-09-18T09:45:56;11.53;;;10.43;;
5951;SDS011;3001;42.622;23.194;2023-09-18T09:48:24;10.80;;;9.47;;
5951;SDS011;3001;42.622;23.194;2023-09-18T09:50:51;10.23;;;9.50;;
5951;SDS011;3001;42.622;23.194;2023-09-18T09:53:21;9.93;;;9.03;;
5951;SDS011;3001;42.622;23.194;2023-09-18T09:56:08;10.47;;;9.50;;
5951;SDS011;3001;42.622;23.194;2023-09-18T09:58:34;9.63;;;8.70;;
5951;SDS011;3001;42.622;23.194;2023-09-18T10:01:02;9.87;;;8.97;;
5951;SDS011;3001;42.622;23.194;2023-09-18T10:03:34;8.57;;;7.97;;
5951;SDS011;3001;42.622;23.194;2023-09-18T10:06:02;8.77;;;8.07;;
5951;SDS011;3001;42.622;23.194;2023-09-18T10:08:33;9.80;;;8.70;;
5951;SDS011;3001;42.622;23.194;2023-09-18T10:11:05;8.33;;;7.70;;
5951;SDS011;3001;42.622;23.194;2023-09-18T10:13:36;8.60;;;7.80;;
5951;SDS011;3001;42.622;23.194;2023-09-18T10:16:08;8.40;;;7.80;;
5951;SDS011;3001;42.622;23.194;2023-09-18T10:18:38;7.77;;;7.20;;
5951;SDS011;3001;42.622;23.194;2023-09-18T10:21:20;8.10;;;7.40;;
5951;SDS011;3001;42.622;23.194;2023-09-18T10:23:56;8.37;;;7.67;;
5951;SDS011;3001;42.622;23.194;2023-09-18T10:26:27;7.37;;;6.87;;
5951;SDS011;3001;42.622;23.194;2023-09-18T10:28:56;9.47;;;6.53;;
5951;SDS011;3001;42.622;23.194;2023-09-18T10:31:25;6.73;;;6.23;;
5951;SDS011;3001;42.622;23.194;2023-09-18T10:33:53;8.33;;;7.63;;
5951;SDS011;3001;42.622;23.194;2023-09-18T10:36:23;7.70;;;6.87;;
5951;SDS011;3001;42.622;23.194;2023-09-18T10:38:51;6.80;;;6.30;;
5951;SDS011;3001;42.622;23.194;2023-09-18T10:41:22;7.00;;;6.50;;
5951;SDS011;3001;42.622;23.194;2023-09-18T10:43:51;6.67;;;6.17;;
5951;SDS011;3001;42.622;23.194;2023-09-18T10:46:21;6.00;;;5.70;;
5951;SDS011;3001;42.622;23.194;2023-09-18T10:48:49;7.28;;;6.35;;
5951;SDS011;3001;42.622;23.194;2023-09-18T10:51:19;7.37;;;6.87;;
5951;SDS011;3001;42.622;23.194;2023-09-18T10:53:47;6.63;;;6.27;;
5951;SDS011;3001;42.622;23.194;2023-09-18T10:56:14;7.68;;;7.07;;
5951;SDS011;3001;42.622;23.194;2023-09-18T10:58:43;6.63;;;6.00;;
5951;SDS011;3001;42.622;23.194;2023-09-18T11:01:11;5.87;;;5.37;;
5951;SDS011;3001;42.622;23.194;2023-09-18T11:03:38;6.13;;;5.63;;
5951;SDS011;3001;42.622;23.194;2023-09-18T11:06:06;6.22;;;5.72;;
5951;SDS011;3001;42.622;23.194;2023-09-18T11:08:35;5.78;;;5.22;;
5951;SDS011;3001;42.622;23.194;2023-09-18T11:11:10;5.45;;;5.15;;
5951;SDS011;3001;42.622;23.194;2023-09-18T11:13:39;6.13;;;5.55;;
5951;SDS011;3001;42.622;23.194;2023-09-18T11:16:16;6.32;;;5.85;;
5951;SDS011;3001;42.622;23.194;2023-09-18T11:18:50;5.73;;;5.43;;
5951;SDS011;3001;42.622;23.194;2023-09-18T11:21:19;6.07;;;5.65;;
5951;SDS011;3001;42.622;23.194;2023-09-18T11:23:57;6.82;;;6.43;;
5951;SDS011;3001;42.622;23.194;2023-09-18T11:26:28;6.80;;;6.40;;
5951;SDS011;3001;42.622;23.194;2023-09-18T11:28:56;7.07;;;6.50;;
5951;SDS011;3001;42.622;23.194;2023-09-18T11:34:16;7.88;;;7.22;;
5951;SDS011;3001;42.622;23.194;2023-09-18T11:36:46;6.55;;;6.20;;
5951;SDS011;3001;42.622;23.194;2023-09-18T11:39:14;6.53;;;6.22;;
5951;SDS011;3001;42.622;23.194;2023-09-18T11:42:08;6.68;;;6.18;;
5951;SDS011;3001;42.622;23.194;2023-09-18T11:44:36;7.22;;;6.63;;
5951;SDS011;3001;42.622;23.194;2023-09-18T11:47:08;8.75;;;7.93;;
5951;SDS011;3001;42.622;23.194;2023-09-18T11:49:45;6.72;;;6.43;;
5951;SDS011;3001;42.622;23.194;2023-09-18T11:52:16;6.45;;;6.15;;
5951;SDS011;3001;42.622;23.194;2023-09-18T11:54:43;6.88;;;6.40;;
5951;SDS011;3001;42.622;23.194;2023-09-18T11:57:12;7.43;;;6.93;;
5951;SDS011;3001;42.622;23.194;2023-09-18T11:59:39;7.43;;;6.80;;
5951;SDS011;3001;42.622;23.194;2023-09-18T12:02:09;7.95;;;5.95;;
5951;SDS011;3001;42.622;23.194;2023-09-18T12:04:36;6.32;;;5.93;;
5951;SDS011;3001;42.622;23.194;2023-09-18T12:07:04;6.50;;;6.10;;
5951;SDS011;3001;42.622;23.194;2023-09-18T12:09:31;6.47;;;5.97;;
5951;SDS011;3001;42.622;23.194;2023-09-18T12:11:59;7.88;;;7.03;;
5951;SDS011;3001;42.622;23.194;2023-09-18T12:14:30;6.55;;;6.07;;
5951;SDS011;3001;42.622;23.194;2023-09-18T12:16:59;6.75;;;6.35;;
5951;SDS011;3001;42.622;23.194;2023-09-18T12:19:29;6.80;;;6.40;;
5951;SDS011;3001;42.622;23.194;2023-09-18T12:21:56;5.70;;;5.30;;
5951;SDS011;3001;42.622;23.194;2023-09-18T12:24:23;6.00;;;5.70;;
5951;SDS011;3001;42.622;23.194;2023-09-18T12:26:50;5.60;;;5.30;;
5951;SDS011;3001;42.622;23.194;2023-09-18T12:29:18;6.38;;;5.75;;
5951;SDS011;3001;42.622;23.194;2023-09-18T12:31:45;5.45;;;5.20;;
5951;SDS011;3001;42.622;23.194;2023-09-18T12:34:15;5.57;;;5.15;;
5951;SDS011;3001;42.622;23.194;2023-09-18T12:36:44;8.13;;;5.25;;
5951;SDS011;3001;42.622;23.194;2023-09-18T12:39:12;6.05;;;5.65;;
5951;SDS011;3001;42.622;23.194;2023-09-18T12:41:41;5.88;;;5.57;;
5951;SDS011;3001;42.622;23.194;2023-09-18T12:44:09;6.18;;;5.88;;
5951;SDS011;3001;42.622;23.194;2023-09-18T12:46:36;6.70;;;5.95;;
5951;SDS011;3001;42.622;23.194;2023-09-18T12:49:15;5.88;;;5.53;;
5951;SDS011;3001;42.622;23.194;2023-09-18T12:51:53;5.20;;;5.00;;
5951;SDS011;3001;42.622;23.194;2023-09-18T12:54:20;6.40;;;6.10;;
5951;SDS011;3001;42.622;23.194;2023-09-18T12:56:47;6.00;;;5.70;;
5951;SDS011;3001;42.622;23.194;2023-09-18T12:59:14;6.05;;;5.55;;
5951;SDS011;3001;42.622;23.194;2023-09-18T13:01:40;6.50;;;5.97;;
5951;SDS011;3001;42.622;23.194;2023-09-18T13:04:13;5.65;;;5.20;;
5951;SDS011;3001;42.622;23.194;2023-09-18T13:06:39;6.70;;;6.20;;
5951;SDS011;3001;42.622;23.194;2023-09-18T13:09:17;6.32;;;5.82;;
5951;SDS011;3001;42.622;23.194;2023-09-18T13:11:52;6.30;;;5.75;;
5951;SDS011;3001;42.622;23.194;2023-09-18T13:14:19;5.82;;;5.53;;
5951;SDS011;3001;42.622;23.194;2023-09-18T13:16:46;6.32;;;5.90;;
5951;SDS011;3001;42.622;23.194;2023-09-18T13:19:12;6.45;;;6.07;;
5951;SDS011;3001;42.622;23.194;2023-09-18T13:21:45;6.75;;;6.32;;
5951;SDS011;3001;42.622;23.194;2023-09-18T13:24:25;6.80;;;6.30;;
5951;SDS011;3001;42.622;23.194;2023-09-18T13:26:52;6.00;;;5.70;;
5951;SDS011;3001;42.622;23.194;2023-09-18T13:29:20;6.13;;;5.82;;
5951;SDS011;3001;42.622;23.194;2023-09-18T13:31:47;5.93;;;5.63;;
5951;SDS011;3001;42.622;23.194;2023-09-18T13:34:14;6.22;;;5.72;;
5951;SDS011;3001;42.622;23.194;2023-09-18T13:36:43;5.90;;;5.57;;
5951;SDS011;3001;42.622;23.194;2023-09-18T13:39:10;5.30;;;5.10;;
5951;SDS011;3001;42.622;23.194;2023-09-18T13:41:38;5.45;;;5.03;;
5951;SDS011;3001;42.622;23.194;2023-09-18T13:44:06;5.90;;;5.60;;
5951;SDS011;3001;42.622;23.194;2023-09-18T13:46:32;5.43;;;5.13;;
5951;SDS011;3001;42.622;23.194;2023-09-18T13:49:01;5.90;;;5.50;;
5951;SDS011;3001;42.622;23.194;2023-09-18T13:51:28;5.70;;;5.30;;
5951;SDS011;3001;42.622;23.194;2023-09-18T13:53:56;6.03;;;5.43;;
5951;SDS011;3001;42.622;23.194;2023-09-18T13:56:22;5.97;;;5.63;;
5951;SDS011;3001;42.622;23.194;2023-09-18T13:58:54;5.63;;;5.28;;
5951;SDS011;3001;42.622;23.194;2023-09-18T14:01:21;6.25;;;5.72;;
5951;SDS011;3001;42.622;23.194;2023-09-18T14:03:49;5.88;;;5.57;;
5951;SDS011;3001;42.622;23.194;2023-09-18T14:06:16;6.40;;;5.90;;
5951;SDS011;3001;42.622;23.194;2023-09-18T14:08:42;5.50;;;5.20;;
5951;SDS011;3001;42.622;23.194;2023-09-18T14:11:09;5.90;;;5.40;;
5951;SDS011;3001;42.622;23.194;2023-09-18T14:13:36;5.97;;;5.68;;
5951;SDS011;3001;42.622;23.194;2023-09-18T14:16:04;6.05;;;5.68;;
5951;SDS011;3001;42.622;23.194;2023-09-18T14:18:31;5.30;;;5.10;;
5951;SDS011;3001;42.622;23.194;2023-09-18T14:20:57;6.20;;;5.70;;
5951;SDS011;3001;42.622;23.194;2023-09-18T14:23:24;5.93;;;5.47;;
5951;SDS011;3001;42.622;23.194;2023-09-18T14:25:52;6.32;;;5.88;;
5951;SDS011;3001;42.622;23.194;2023-09-18T14:28:19;6.15;;;5.75;;
5951;SDS011;3001;42.622;23.194;2023-09-18T14:30:46;5.90;;;5.53;;
5951;SDS011;3001;42.622;23.194;2023-09-18T14:33:14;6.32;;;6.03;;
5951;SDS011;3001;42.622;23.194;2023-09-18T14:35:41;6.88;;;6.47;;
5951;SDS011;3001;42.622;23.194;2023-09-18T14:38:07;6.07;;;5.78;;
5951;SDS011;3001;42.622;23.194;2023-09-18T14:40:35;7.00;;;6.38;;
5951;SDS011;3001;42.622;23.194;2023-09-18T14:43:02;6.20;;;5.90;;
5951;SDS011;3001;42.622;23.194;2023-09-18T14:45:30;6.68;;;6.38;;
5951;SDS011;3001;42.622;23.194;2023-09-18T14:47:57;6.05;;;5.78;;
5951;SDS011;3001;42.622;23.194;2023-09-18T14:50:25;8.60;;;5.68;;
5951;SDS011;3001;42.622;23.194;2023-09-18T14:52:51;6.07;;;5.85;;
5951;SDS011;3001;42.622;23.194;2023-09-18T14:55:18;5.93;;;5.43;;